createdAt,value
2017-11-05T00:02:04.403Z,25.60
2017-11-05T00:04:31.024Z,25.00
2017-11-05T00:06:57.675Z,24.63
2017-11-05T00:09:24.292Z,24.47
2017-11-05T00:11:50.913Z,25.70
2017-11-05T00:14:17.537Z,23.07
2017-11-05T00:16:44.185Z,22.77
2017-11-05T00:19:10.818Z,22.80
2017-11-05T00:21:37.476Z,23.13
2017-11-05T00:24:04.091Z,23.83
2017-11-05T00:26:30.711Z,23.57
2017-11-05T00:28:57.321Z,25.07
2017-11-05T00:31:23.999Z,22.57
2017-11-05T00:33:52.178Z,24.90
2017-11-05T00:36:18.797Z,26.10
2017-11-05T00:38:45.411Z,23.90
2017-11-05T00:41:12.022Z,24.40
2017-11-05T00:43:38.646Z,28.20
2017-11-05T00:46:05.275Z,24.40
2017-11-05T00:48:31.913Z,27.70
2017-11-05T00:50:59.505Z,26.90
2017-11-05T00:53:26.137Z,28.63
2017-11-05T00:55:52.753Z,27.73
2017-11-05T00:58:19.382Z,30.90
2017-11-05T01:00:46.006Z,29.63
2017-11-05T01:03:12.609Z,30.67
2017-11-05T01:05:39.246Z,27.17
2017-11-05T01:08:06.541Z,25.93
2017-11-05T01:10:33.165Z,29.70
2017-11-05T01:12:59.787Z,28.80
2017-11-05T01:15:26.390Z,31.20
2017-11-05T01:17:53.017Z,26.93
2017-11-05T01:20:19.625Z,28.57
2017-11-05T01:22:46.280Z,27.93
2017-11-05T01:25:12.944Z,25.30
2017-11-05T01:27:39.862Z,25.23
2017-11-05T01:30:06.481Z,26.23
2017-11-05T01:32:33.094Z,25.10
2017-11-05T01:34:59.721Z,22.90
2017-11-05T01:37:26.321Z,24.40
2017-11-05T01:39:52.960Z,25.40
2017-11-05T01:42:19.603Z,26.30
2017-11-05T01:44:46.697Z,29.80
2017-11-05T01:47:13.323Z,29.53
2017-11-05T01:49:39.969Z,32.03
2017-11-05T01:52:06.597Z,30.97
2017-11-05T01:54:33.238Z,30.67
2017-11-05T01:56:59.866Z,28.50
2017-11-05T01:59:26.470Z,30.50
2017-11-05T02:01:53.084Z,30.83
2017-11-05T02:04:19.723Z,29.80
2017-11-05T02:06:46.393Z,28.67
2017-11-05T02:09:13.001Z,29.57
2017-11-05T02:11:39.627Z,28.47
2017-11-05T02:14:06.258Z,26.23
2017-11-05T02:16:32.866Z,27.53
2017-11-05T02:18:59.496Z,28.87
2017-11-05T02:21:26.100Z,29.87
2017-11-05T02:23:52.732Z,30.07
2017-11-05T02:26:19.344Z,29.10
2017-11-05T02:28:45.974Z,30.37
2017-11-05T02:31:12.604Z,31.20
2017-11-05T02:33:39.226Z,29.47
2017-11-05T02:36:05.893Z,28.70
2017-11-05T02:38:32.498Z,28.63
2017-11-05T02:40:59.130Z,27.97
2017-11-05T02:43:25.742Z,28.23
2017-11-05T02:45:52.361Z,27.80
2017-11-05T02:48:19.009Z,27.13
2017-11-05T02:50:45.638Z,30.10
2017-11-05T02:53:12.248Z,30.93
2017-11-05T02:55:38.870Z,29.50
2017-11-05T02:58:05.490Z,33.63
2017-11-05T03:00:32.102Z,30.03
2017-11-05T03:02:59.380Z,27.33
2017-11-05T03:05:25.989Z,29.07
2017-11-05T03:07:52.617Z,31.07
2017-11-05T03:10:19.230Z,32.87
2017-11-05T03:12:45.869Z,32.67
2017-11-05T03:15:12.481Z,32.50
2017-11-05T03:17:39.128Z,33.43
2017-11-05T03:20:05.740Z,32.20
2017-11-05T03:22:32.345Z,34.30
2017-11-05T03:24:59.059Z,33.20
2017-11-05T03:27:25.674Z,35.50
2017-11-05T03:29:52.298Z,35.93
2017-11-05T03:32:18.894Z,35.03
2017-11-05T03:34:45.499Z,34.17
2017-11-05T03:37:12.129Z,36.00
2017-11-05T03:39:38.754Z,30.03
2017-11-05T03:42:05.409Z,33.20
2017-11-05T03:44:32.054Z,33.33
2017-11-05T03:46:58.732Z,32.20
2017-11-05T03:49:25.340Z,33.63
2017-11-05T03:51:51.980Z,29.70
2017-11-05T03:54:18.582Z,33.20
2017-11-05T03:56:45.217Z,30.93
2017-11-05T03:59:11.862Z,34.53
2017-11-05T04:01:38.538Z,33.63
2017-11-05T04:04:05.191Z,35.57
2017-11-05T04:06:31.791Z,32.90
2017-11-05T04:08:58.424Z,30.70
2017-11-05T04:11:25.016Z,33.07
2017-11-05T04:13:51.635Z,35.30
2017-11-05T04:16:18.315Z,33.73
2017-11-05T04:18:44.944Z,34.27
2017-11-05T04:21:11.550Z,33.43
2017-11-05T04:23:38.152Z,35.30
2017-11-05T04:26:04.776Z,30.70
2017-11-05T04:28:31.400Z,24.57
2017-11-05T04:30:58.017Z,23.00
2017-11-05T04:33:25.581Z,19.80
2017-11-05T04:35:52.211Z,20.93
2017-11-05T04:38:18.832Z,17.70
2017-11-05T04:40:45.444Z,14.57
2017-11-05T04:43:12.069Z,13.60
2017-11-05T04:45:39.064Z,15.93
2017-11-05T04:48:05.688Z,13.73
2017-11-05T04:50:32.321Z,13.60
2017-11-05T04:52:58.970Z,15.80
2017-11-05T04:55:25.586Z,19.77
2017-11-05T04:57:52.207Z,26.20
2017-11-05T05:00:18.832Z,29.47
2017-11-05T05:02:45.471Z,32.17
2017-11-05T05:05:12.085Z,29.10
2017-11-05T05:07:38.806Z,24.23
2017-11-05T05:10:06.079Z,22.67
2017-11-05T05:12:32.700Z,22.23
2017-11-05T05:14:59.336Z,22.23
2017-11-05T05:17:26.753Z,22.20
2017-11-05T05:19:53.364Z,21.83
2017-11-05T05:22:20.002Z,20.33
2017-11-05T05:24:47.535Z,21.10
2017-11-05T05:27:14.203Z,20.63
2017-11-05T05:29:40.815Z,20.13
2017-11-05T05:32:07.437Z,21.30
2017-11-05T05:34:34.077Z,18.80
2017-11-05T05:37:00.682Z,24.97
2017-11-05T05:39:27.317Z,25.07
2017-11-05T05:41:54.658Z,27.13
2017-11-05T05:44:21.286Z,27.23
2017-11-05T05:46:47.890Z,24.90
2017-11-05T05:49:15.172Z,24.20
2017-11-05T05:51:41.780Z,19.83
2017-11-05T05:54:08.396Z,20.47
2017-11-05T05:56:35.035Z,18.70
2017-11-05T05:59:01.672Z,16.40
2017-11-05T06:01:28.288Z,12.63
2017-11-05T06:03:55.853Z,15.70
2017-11-05T06:06:22.464Z,16.97
2017-11-05T06:08:49.102Z,17.60
2017-11-05T06:11:15.722Z,20.53
2017-11-05T06:13:42.422Z,17.70
2017-11-05T06:16:09.213Z,20.40
2017-11-05T06:18:35.842Z,19.60
2017-11-05T06:21:02.457Z,19.30
2017-11-05T06:23:30.048Z,19.93
2017-11-05T06:25:56.670Z,21.17
2017-11-05T06:28:23.293Z,17.23
2017-11-05T06:30:49.898Z,19.33
2017-11-05T06:33:16.524Z,21.20
2017-11-05T06:35:43.264Z,19.70
2017-11-05T06:38:09.884Z,18.80
2017-11-05T06:40:36.498Z,16.07
2017-11-05T06:43:03.117Z,18.47
2017-11-05T06:45:29.852Z,16.60
2017-11-05T06:47:56.464Z,18.40
2017-11-05T06:50:23.073Z,18.10
2017-11-05T06:52:49.698Z,20.30
2017-11-05T06:55:16.317Z,22.37
2017-11-05T06:57:42.927Z,24.53
2017-11-05T07:00:09.568Z,27.87
2017-11-05T07:02:36.186Z,28.80
2017-11-05T07:05:02.798Z,25.23
2017-11-05T07:07:29.917Z,16.50
2017-11-05T07:09:56.521Z,8.93
2017-11-05T07:12:23.126Z,7.40
2017-11-05T07:14:49.765Z,5.50
2017-11-05T07:17:16.376Z,6.90
2017-11-05T07:19:43.860Z,5.60
2017-11-05T07:22:10.453Z,4.93
2017-11-05T07:24:37.076Z,6.90
2017-11-05T07:27:03.688Z,6.13
2017-11-05T07:29:30.292Z,6.53
2017-11-05T07:31:56.891Z,5.53
2017-11-05T07:34:23.504Z,6.30
2017-11-05T07:36:50.113Z,5.23
2017-11-05T07:39:16.714Z,5.70
2017-11-05T07:41:43.950Z,5.67
2017-11-05T07:44:10.577Z,5.87
2017-11-05T07:46:37.189Z,6.13
2017-11-05T07:49:03.798Z,4.37
2017-11-05T07:51:31.494Z,7.07
2017-11-05T07:53:58.098Z,5.43
2017-11-05T07:56:24.845Z,5.10
2017-11-05T07:58:51.438Z,6.50
2017-11-05T08:01:18.052Z,7.10
2017-11-05T08:03:44.733Z,6.70
2017-11-05T08:06:11.358Z,7.90
2017-11-05T08:08:37.989Z,9.30
2017-11-05T08:11:04.619Z,7.43
2017-11-05T08:13:31.259Z,6.77
2017-11-05T08:15:58.057Z,6.70
2017-11-05T08:18:24.658Z,15.60
2017-11-05T08:20:51.285Z,11.80
2017-11-05T08:23:17.921Z,10.07
2017-11-05T08:25:44.572Z,10.60
2017-11-05T08:28:11.192Z,14.37
2017-11-05T08:30:37.827Z,12.20
2017-11-05T08:33:04.511Z,9.00
2017-11-05T08:35:31.154Z,10.70
2017-11-05T08:37:57.772Z,8.50
2017-11-05T08:40:24.387Z,11.93
2017-11-05T08:42:51.026Z,14.33
2017-11-05T08:45:17.642Z,12.03
2017-11-05T08:47:44.283Z,7.97
2017-11-05T08:50:11.518Z,6.90
2017-11-05T08:52:38.141Z,7.93
2017-11-05T08:55:04.775Z,5.80
2017-11-05T08:57:31.396Z,4.70
2017-11-05T08:59:58.005Z,4.80
2017-11-05T09:02:24.650Z,4.97
2017-11-05T09:04:51.266Z,5.63
2017-11-05T09:07:17.878Z,5.23
2017-11-05T09:09:44.515Z,4.77
2017-11-05T09:12:11.134Z,4.77
2017-11-05T09:14:37.768Z,4.70
2017-11-05T09:17:04.372Z,5.33
2017-11-05T09:19:30.969Z,5.83
2017-11-05T09:21:57.592Z,6.00
2017-11-05T09:24:25.123Z,5.30
2017-11-05T09:26:51.746Z,5.67
2017-11-05T09:29:18.353Z,5.93
2017-11-05T09:31:44.986Z,5.53
2017-11-05T09:34:11.890Z,5.60
2017-11-05T09:36:38.510Z,5.80
2017-11-05T09:39:05.118Z,5.27
2017-11-05T09:41:31.724Z,5.07
2017-11-05T09:43:58.347Z,5.60
2017-11-05T09:46:24.976Z,5.77
2017-11-05T09:48:51.591Z,5.57
2017-11-05T09:51:18.193Z,6.90
2017-11-05T09:53:44.818Z,7.10
2017-11-05T09:56:11.428Z,6.23
2017-11-05T09:58:38.040Z,6.33
2017-11-05T10:01:05.068Z,7.07
2017-11-05T10:03:31.682Z,8.47
2017-11-05T10:05:58.324Z,8.70
2017-11-05T10:08:24.971Z,7.97
2017-11-05T10:10:51.592Z,8.70
2017-11-05T10:13:18.206Z,8.60
2017-11-05T10:15:44.876Z,11.73
2017-11-05T10:18:11.500Z,10.00
2017-11-05T10:20:38.108Z,8.53
2017-11-05T10:23:04.731Z,8.77
2017-11-05T10:25:31.327Z,6.60
2017-11-05T10:27:57.949Z,6.87
2017-11-05T10:30:24.589Z,7.83
2017-11-05T10:32:51.192Z,7.50
2017-11-05T10:35:17.824Z,6.83
2017-11-05T10:37:44.443Z,7.83
2017-11-05T10:40:11.038Z,7.33
2017-11-05T10:42:37.657Z,7.10
2017-11-05T10:45:04.310Z,7.60
2017-11-05T10:47:30.938Z,8.10
2017-11-05T10:49:57.601Z,7.17
2017-11-05T10:52:24.223Z,7.00
2017-11-05T10:54:50.851Z,7.93
2017-11-05T10:57:17.460Z,6.60
2017-11-05T10:59:44.098Z,7.10
2017-11-05T11:02:10.752Z,6.17
2017-11-05T11:04:37.375Z,6.73
2017-11-05T11:07:04.119Z,6.97
2017-11-05T11:09:31.601Z,5.63
2017-11-05T11:11:58.216Z,6.33
2017-11-05T11:14:25.525Z,5.93
2017-11-05T11:16:52.138Z,8.67
2017-11-05T11:19:18.755Z,7.00
2017-11-05T11:21:45.377Z,8.80
2017-11-05T11:24:12.726Z,8.37
2017-11-05T11:26:39.332Z,8.40
2017-11-05T11:29:05.938Z,9.20
2017-11-05T11:31:32.554Z,8.80
2017-11-05T11:33:59.190Z,8.50
2017-11-05T11:36:25.837Z,7.67
2017-11-05T11:38:52.497Z,9.07
2017-11-05T11:41:19.127Z,9.47
2017-11-05T11:43:45.777Z,7.83
2017-11-05T11:46:12.389Z,8.87
2017-11-05T11:48:39.045Z,8.20
2017-11-05T11:51:05.652Z,7.67
2017-11-05T11:53:32.267Z,8.03
2017-11-05T11:55:58.933Z,10.40
2017-11-05T11:58:25.567Z,8.30
2017-11-05T12:00:52.208Z,7.53
2017-11-05T12:03:18.864Z,7.37
2017-11-05T12:05:49.239Z,7.80
2017-11-05T12:08:15.864Z,7.60
2017-11-05T12:10:42.467Z,7.00
2017-11-05T12:13:09.069Z,6.80
2017-11-05T12:15:35.696Z,6.97
2017-11-05T12:18:02.346Z,6.93
2017-11-05T12:20:28.934Z,5.63
2017-11-05T12:22:56.133Z,6.53
2017-11-05T12:25:22.773Z,5.70
2017-11-05T12:27:49.413Z,8.07
2017-11-05T12:30:16.045Z,7.17
2017-11-05T12:32:42.683Z,6.20
2017-11-05T12:35:09.316Z,6.50
2017-11-05T12:37:36.019Z,6.93
2017-11-05T12:40:02.661Z,7.00
2017-11-05T12:42:29.298Z,7.07
2017-11-05T12:44:55.975Z,6.83
2017-11-05T12:47:22.583Z,5.07
2017-11-05T12:49:49.184Z,5.27
2017-11-05T12:52:15.800Z,4.87
2017-11-05T12:54:42.453Z,5.37
2017-11-05T12:57:10.030Z,5.20
2017-11-05T12:59:36.647Z,5.00
2017-11-05T13:02:03.273Z,6.30
2017-11-05T13:04:29.939Z,5.57
2017-11-05T13:06:56.537Z,6.70
2017-11-05T13:09:23.178Z,7.20
2017-11-05T13:11:49.829Z,5.77
2017-11-05T13:14:18.042Z,6.00
2017-11-05T13:16:44.705Z,5.90
2017-11-05T13:19:11.327Z,4.47
2017-11-05T13:21:37.953Z,4.40
2017-11-05T13:24:04.561Z,6.10
2017-11-05T13:26:31.180Z,6.90
2017-11-05T13:28:57.813Z,7.90
2017-11-05T13:31:24.488Z,8.40
2017-11-05T13:33:51.170Z,9.40
2017-11-05T13:36:17.811Z,8.80
2017-11-05T13:38:44.477Z,10.23
2017-11-05T13:41:11.101Z,9.73
2017-11-05T13:43:37.733Z,10.83
2017-11-05T13:46:04.346Z,9.20
2017-11-05T13:48:31.619Z,10.83
2017-11-05T13:50:58.314Z,11.10
2017-11-05T13:53:24.964Z,12.73
2017-11-05T13:55:51.592Z,11.23
2017-11-05T13:58:18.195Z,12.17
2017-11-05T14:00:44.815Z,11.53
2017-11-05T14:03:11.434Z,13.03
2017-11-05T14:05:38.062Z,9.70
2017-11-05T14:08:04.672Z,12.67
2017-11-05T14:10:31.301Z,10.60
2017-11-05T14:12:57.921Z,9.27
2017-11-05T14:15:25.361Z,8.43
2017-11-05T14:17:52.885Z,6.47
2017-11-05T14:20:19.533Z,6.93
2017-11-05T14:22:46.171Z,6.80
2017-11-05T14:25:12.771Z,6.07
2017-11-05T14:27:39.372Z,6.00
2017-11-05T14:30:05.981Z,6.43
2017-11-05T14:32:32.802Z,6.00
2017-11-05T14:34:59.488Z,5.97
2017-11-05T14:37:26.131Z,15.33
2017-11-05T14:39:52.749Z,35.37
2017-11-05T14:42:19.382Z,15.50
2017-11-05T14:44:46.050Z,8.40
2017-11-05T14:47:12.667Z,9.07
2017-11-05T14:49:39.279Z,7.73
2017-11-05T14:52:06.737Z,14.97
2017-11-05T14:54:33.381Z,9.40
2017-11-05T14:57:00.013Z,30.83
2017-11-05T14:59:26.638Z,14.50
2017-11-05T15:01:53.256Z,11.30
2017-11-05T15:04:20.501Z,11.60
2017-11-05T15:06:49.825Z,9.03
2017-11-05T15:09:17.453Z,8.00
2017-11-05T15:11:44.106Z,8.03
2017-11-05T15:14:11.481Z,8.77
2017-11-05T15:16:41.689Z,8.20
2017-11-05T15:19:10.542Z,10.67
2017-11-05T15:21:37.694Z,8.60
2017-11-05T15:24:04.357Z,7.30
2017-11-05T15:26:31.817Z,6.40
2017-11-05T15:28:58.453Z,6.07
2017-11-05T15:31:25.076Z,5.03
2017-11-05T15:33:51.695Z,6.47
2017-11-05T15:36:18.287Z,4.30
2017-11-05T15:38:44.920Z,4.70
2017-11-05T15:41:11.552Z,5.80
2017-11-05T15:43:38.183Z,5.10
2017-11-05T15:46:04.819Z,4.77
2017-11-05T15:48:31.440Z,5.87
2017-11-05T15:50:58.073Z,8.53
2017-11-05T15:53:24.822Z,7.40
2017-11-05T15:55:51.433Z,7.20
2017-11-05T15:58:18.088Z,10.10
2017-11-05T16:00:44.724Z,6.80
2017-11-05T16:03:11.325Z,9.00
2017-11-05T16:05:37.941Z,7.43
2017-11-05T16:08:04.569Z,6.10
2017-11-05T16:10:31.232Z,9.43
2017-11-05T16:12:57.853Z,7.10
2017-11-05T16:15:24.567Z,7.53
2017-11-05T16:17:51.175Z,8.70
2017-11-05T16:20:17.781Z,9.00
2017-11-05T16:22:44.414Z,9.60
2017-11-05T16:25:11.543Z,13.20
2017-11-05T16:27:38.174Z,9.90
2017-11-05T16:30:04.874Z,11.10
2017-11-05T16:32:31.545Z,11.30
2017-11-05T16:34:58.169Z,8.03
2017-11-05T16:37:24.786Z,11.43
2017-11-05T16:39:51.390Z,12.73
2017-11-05T16:42:18.043Z,14.40
2017-11-05T16:44:44.682Z,12.80
2017-11-05T16:47:11.298Z,13.07
2017-11-05T16:49:38.045Z,11.40
2017-11-05T16:52:04.665Z,9.27
2017-11-05T16:54:31.317Z,11.00
2017-11-05T16:56:57.952Z,8.70
2017-11-05T16:59:24.632Z,8.10
2017-11-05T17:01:51.226Z,8.13
2017-11-05T17:04:17.853Z,9.20
2017-11-05T17:06:44.565Z,7.03
2017-11-05T17:09:11.162Z,6.67
2017-11-05T17:11:37.769Z,6.73
2017-11-05T17:14:04.441Z,6.50
2017-11-05T17:16:31.105Z,8.13
2017-11-05T17:18:59.215Z,8.20
2017-11-05T17:21:25.870Z,7.37
2017-11-05T17:23:52.628Z,7.53
2017-11-05T17:26:19.254Z,7.13
2017-11-05T17:28:45.924Z,8.80
2017-11-05T17:31:12.567Z,8.97
2017-11-05T17:33:39.188Z,7.83
2017-11-05T17:36:05.810Z,9.40
2017-11-05T17:38:32.429Z,8.40
2017-11-05T17:40:59.162Z,10.53
2017-11-05T17:43:25.798Z,10.70
2017-11-05T17:45:52.435Z,11.70
2017-11-05T17:48:19.073Z,9.90
2017-11-05T17:50:45.688Z,9.27
2017-11-05T17:53:12.318Z,10.17
2017-11-05T17:55:38.985Z,8.20
2017-11-05T17:58:05.685Z,9.93
2017-11-05T18:00:32.323Z,9.13
2017-11-05T18:02:59.024Z,7.87
2017-11-05T18:05:25.651Z,10.10
2017-11-05T18:07:52.332Z,11.10
2017-11-05T18:10:19.024Z,8.77
2017-11-05T18:12:45.668Z,8.67
2017-11-05T18:15:12.317Z,8.10
2017-11-05T18:17:41.978Z,7.33
2017-11-05T18:20:08.622Z,7.53
2017-11-05T18:22:35.251Z,7.40
2017-11-05T18:25:01.891Z,12.23
2017-11-05T18:27:28.525Z,10.77
2017-11-05T18:29:56.282Z,18.27
2017-11-05T18:32:23.078Z,14.50
2017-11-05T18:34:49.927Z,11.60
2017-11-05T18:37:17.488Z,10.10
2017-11-05T18:39:44.150Z,10.33
2017-11-05T18:42:10.790Z,11.63
2017-11-05T18:44:37.402Z,9.23
2017-11-05T18:47:04.020Z,7.47
2017-11-05T18:49:30.636Z,7.57
2017-11-05T18:51:58.056Z,6.20
2017-11-05T18:54:24.771Z,5.90
2017-11-05T18:56:51.406Z,6.57
2017-11-05T18:59:18.054Z,6.00
2017-11-05T19:01:44.723Z,5.67
2017-11-05T19:04:11.341Z,4.93
2017-11-05T19:06:37.961Z,4.27
2017-11-05T19:09:04.603Z,5.80
2017-11-05T19:11:31.224Z,6.30
2017-11-05T19:13:57.844Z,6.50
2017-11-05T19:16:24.465Z,8.67
2017-11-05T19:18:51.074Z,8.87
2017-11-05T19:21:17.686Z,8.50
2017-11-05T19:23:44.327Z,10.37
2017-11-05T19:26:11.819Z,15.90
2017-11-05T19:28:38.502Z,11.43
2017-11-05T19:31:05.161Z,7.90
2017-11-05T19:33:31.815Z,9.13
2017-11-05T19:35:58.434Z,7.60
2017-11-05T19:38:25.088Z,7.67
2017-11-05T19:40:51.701Z,7.13
2017-11-05T19:43:18.352Z,8.40
2017-11-05T19:45:44.997Z,8.33
2017-11-05T19:48:11.701Z,7.10
2017-11-05T19:50:38.370Z,7.80
2017-11-05T19:53:05.169Z,8.60
2017-11-05T19:55:31.893Z,8.50
2017-11-05T19:57:58.514Z,10.33
2017-11-05T20:00:25.459Z,10.50
2017-11-05T20:02:52.947Z,14.43
2017-11-05T20:05:19.575Z,10.80
2017-11-05T20:07:46.217Z,11.07
2017-11-05T20:10:13.641Z,10.50
2017-11-05T20:12:40.817Z,9.93
2017-11-05T20:15:07.530Z,10.00
2017-11-05T20:17:34.287Z,11.80
2017-11-05T20:20:00.968Z,11.20
2017-11-05T20:22:27.686Z,10.73
2017-11-05T20:24:54.496Z,10.70
2017-11-05T20:27:21.145Z,12.77
2017-11-05T20:29:48.282Z,12.43
2017-11-05T20:32:14.954Z,12.83
2017-11-05T20:34:41.603Z,14.03
2017-11-05T20:37:08.264Z,12.57
2017-11-05T20:39:34.908Z,13.90
2017-11-05T20:42:01.540Z,14.23
2017-11-05T20:44:28.166Z,14.47
2017-11-05T20:46:54.860Z,13.50
2017-11-05T20:49:21.488Z,13.97
2017-11-05T20:51:48.240Z,15.30
2017-11-05T20:54:16.175Z,16.43
2017-11-05T20:56:43.026Z,15.93
2017-11-05T20:59:09.688Z,14.13
2017-11-05T21:01:36.355Z,15.27
2017-11-05T21:04:02.986Z,18.27
2017-11-05T21:06:29.617Z,22.27
2017-11-05T21:08:56.330Z,21.47
2017-11-05T21:11:23.835Z,18.67
2017-11-05T21:13:50.577Z,25.03
2017-11-05T21:16:17.264Z,23.53
2017-11-05T21:18:44.447Z,22.80
2017-11-05T21:21:11.046Z,21.67
2017-11-05T21:23:37.679Z,20.03
2017-11-05T21:26:05.141Z,15.80
2017-11-05T21:28:31.807Z,20.90
2017-11-05T21:30:58.461Z,21.23
2017-11-05T21:33:25.771Z,22.10
2017-11-05T21:35:52.772Z,20.40
2017-11-05T21:38:19.406Z,17.77
2017-11-05T21:40:46.069Z,19.43
2017-11-05T21:43:12.684Z,18.17
2017-11-05T21:45:39.312Z,16.80
2017-11-05T21:48:05.945Z,20.47
2017-11-05T21:50:32.607Z,18.40
2017-11-05T21:52:59.227Z,18.73
2017-11-05T21:55:25.872Z,19.70
2017-11-05T21:57:52.495Z,17.97
2017-11-05T22:00:19.138Z,21.00
2017-11-05T22:02:45.768Z,18.10
2017-11-05T22:05:12.375Z,18.57
2017-11-05T22:07:38.996Z,20.20
2017-11-05T22:10:05.639Z,16.40
2017-11-05T22:12:32.249Z,18.03
2017-11-05T22:14:58.899Z,16.97
2017-11-05T22:17:25.572Z,17.57
2017-11-05T22:19:52.172Z,19.60
2017-11-05T22:22:18.777Z,21.67
2017-11-05T22:24:45.427Z,22.17
2017-11-05T22:27:12.037Z,17.83
2017-11-05T22:29:38.656Z,19.00
2017-11-05T22:32:05.297Z,17.70
2017-11-05T22:34:31.892Z,16.30
2017-11-05T22:36:58.570Z,18.50
2017-11-05T22:39:25.254Z,17.30
2017-11-05T22:41:51.865Z,17.23
2017-11-05T22:44:18.505Z,18.03
2017-11-05T22:46:45.165Z,16.30
2017-11-05T22:49:11.779Z,20.57
2017-11-05T22:51:38.395Z,18.47
2017-11-05T22:54:05.010Z,18.07
2017-11-05T22:56:31.684Z,18.47
2017-11-05T22:58:58.303Z,19.77
2017-11-05T23:01:24.953Z,19.00
2017-11-05T23:03:51.544Z,19.50
2017-11-05T23:06:18.186Z,21.37
2017-11-05T23:08:44.824Z,20.87
2017-11-05T23:11:11.439Z,22.73
2017-11-05T23:13:38.071Z,25.77
2017-11-05T23:16:04.723Z,23.10
2017-11-05T23:18:31.369Z,20.47
2017-11-05T23:20:57.985Z,21.57
2017-11-05T23:23:24.623Z,23.00
2017-11-05T23:25:51.262Z,21.53
2017-11-05T23:28:17.878Z,24.50
2017-11-05T23:30:44.500Z,24.53
2017-11-05T23:33:11.181Z,28.07
2017-11-05T23:35:37.807Z,25.70
2017-11-05T23:38:04.432Z,24.00
2017-11-05T23:40:31.084Z,23.90
2017-11-05T23:42:57.690Z,25.10
2017-11-05T23:45:24.302Z,23.90
2017-11-05T23:47:50.941Z,23.67
2017-11-05T23:50:17.558Z,24.60
2017-11-05T23:52:44.188Z,28.47
2017-11-05T23:55:10.819Z,27.30
2017-11-05T23:57:37.460Z,23.83
